Time;durP1;ratioP1;P1;durP2;ratioP2;P2;SDS_P1;SDS_P2;PMS_P1;PMS_P2;Temp;Humidity;BMP_temperature;BMP_pressure;BME280_temperature;BME280_humidity;BME280_pressure;Samples;Min_cycle;Max_cycle;Signal;HPM_P1;HPM_P2
2023/01/24 00:01:10;;;;;;;9.23;5.77;;;4.70;99.90;;;;;;5052939;28;20401;-73
2023/01/24 00:03:36;;;;;;;8.03;6.23;;;4.70;99.90;;;;;;5053014;28;20175;-72
2023/01/24 00:06:02;;;;;;;10.30;7.63;;;4.70;99.90;;;;;;5052449;28;20213;-72
2023/01/24 00:08:28;;;;;;;8.63;5.80;;;4.80;99.90;;;;;;5072270;28;20933;-72
2023/01/24 00:11:02;;;;;;;10.33;5.63;;;4.70;99.90;;;;;;5072780;28;20487;-72
2023/01/24 00:13:28;;;;;;;7.93;6.30;;;4.70;99.90;;;;;;5072740;28;20659;-72
2023/01/24 00:16:10;;;;;;;9.60;7.17;;;4.70;99.90;;;;;;5071393;28;20529;-72
2023/01/24 00:18:35;;;;;;;9.80;5.70;;;4.70;99.90;;;;;;5063564;28;20535;-72
2023/01/24 00:21:09;;;;;;;11.60;5.50;;;4.70;99.90;;;;;;5072530;28;20480;-72
2023/01/24 00:23:36;;;;;;;10.43;6.70;;;4.70;99.90;;;;;;5072385;28;20170;-72
2023/01/24 00:26:02;;;;;;;10.43;7.07;;;4.70;99.90;;;;;;5072318;28;20920;-72
2023/01/24 00:28:28;;;;;;;6.90;5.37;;;4.70;99.90;;;;;;5072474;28;20416;-72
2023/01/24 00:30:53;;;;;;;10.40;5.63;;;4.70;99.90;;;;;;5072317;28;20444;-72
2023/01/24 00:33:19;;;;;;;7.33;6.47;;;4.80;99.90;;;;;;5072486;28;20508;-72
2023/01/24 00:35:44;;;;;;;8.50;6.20;;;4.80;99.90;;;;;;5070659;28;20177;-72
2023/01/24 00:38:10;;;;;;;6.60;5.03;;;4.90;99.90;;;;;;5071816;28;20210;-73
2023/01/24 00:40:35;;;;;;;10.53;6.57;;;4.90;99.90;;;;;;5072130;28;20169;-72
2023/01/24 00:43:01;;;;;;;6.83;5.47;;;4.90;99.90;;;;;;5071934;28;20170;-73
2023/01/24 00:45:26;;;;;;;6.70;4.97;;;4.90;99.90;;;;;;5071832;28;20545;-73
2023/01/24 00:47:54;;;;;;;6.50;5.20;;;4.90;99.90;;;;;;5064984;28;20206;-72
2023/01/24 00:50:20;;;;;;;6.27;4.80;;;4.90;99.90;;;;;;5052828;28;20663;-72
2023/01/24 00:52:45;;;;;;;5.47;4.40;;;4.80;99.90;;;;;;5052033;28;20401;-72
2023/01/24 00:55:11;;;;;;;7.60;4.40;;;4.70;99.90;;;;;;5051843;28;20171;-72
2023/01/24 00:57:36;;;;;;;7.40;4.83;;;4.80;99.90;;;;;;5062343;28;20263;-72
2023/01/24 01:00:03;;;;;;;9.43;5.33;;;4.80;99.90;;;;;;5071966;28;20659;-71
2023/01/24 01:02:28;;;;;;;10.03;5.17;;;4.80;99.90;;;;;;5071977;28;20166;-71
2023/01/24 01:04:54;;;;;;;8.93;6.20;;;4.80;99.90;;;;;;5071746;28;20495;-71
2023/01/24 01:07:21;;;;;;;5.43;4.87;;;4.80;99.90;;;;;;5063022;28;20179;-72
2023/01/24 01:09:47;;;;;;;8.17;4.90;;;4.80;99.90;;;;;;5051738;28;20166;-72
2023/01/24 01:12:12;;;;;;;5.67;4.23;;;4.80;99.90;;;;;;5051743;28;20973;-72
2023/01/24 01:14:38;;;;;;;6.87;4.97;;;4.80;99.90;;;;;;5051430;28;20406;-74
2023/01/24 01:17:03;;;;;;;5.80;4.60;;;4.70;99.90;;;;;;5069536;28;20174;-75
2023/01/24 01:19:29;;;;;;;5.37;4.20;;;4.70;99.90;;;;;;5071616;28;20182;-73
2023/01/24 01:21:54;;;;;;;6.10;4.27;;;4.60;99.90;;;;;;5071838;28;20666;-72
2023/01/24 01:24:20;;;;;;;6.30;4.83;;;4.60;99.90;;;;;;5071408;28;20174;-73
2023/01/24 01:26:45;;;;;;;5.97;4.60;;;4.60;99.90;;;;;;5067343;28;20179;-73
2023/01/24 01:29:11;;;;;;;7.20;4.23;;;4.60;99.90;;;;;;5051675;28;20222;-72
2023/01/24 01:31:36;;;;;;;7.27;4.90;;;4.60;99.90;;;;;;5050577;28;20733;-73
2023/01/24 01:34:02;;;;;;;5.97;4.03;;;4.70;99.90;;;;;;5051649;28;20220;-73
2023/01/24 01:36:27;;;;;;;9.30;5.87;;;4.70;99.90;;;;;;5051392;28;20163;-74
2023/01/24 01:38:53;;;;;;;5.07;4.57;;;4.70;99.90;;;;;;5070633;28;20516;-73
2023/01/24 01:41:19;;;;;;;7.87;4.50;;;4.70;99.90;;;;;;5071326;28;20181;-74
2023/01/24 01:46:41;;;;;;;7.57;5.53;;;4.50;99.90;;;;;;5063842;28;20189;-74
2023/01/24 01:49:21;;;;;;;7.47;5.63;;;4.60;99.90;;;;;;5071376;28;20416;-74
2023/01/24 01:51:50;;;;;;;7.77;5.50;;;4.60;99.90;;;;;;5071606;28;20534;-74
2023/01/24 01:54:25;;;;;;;7.43;5.37;;;4.70;99.90;;;;;;5070363;28;20411;-73
2023/01/24 01:56:56;;;;;;;6.40;4.83;;;4.60;99.90;;;;;;5071238;28;20412;-74
2023/01/24 01:59:35;;;;;;;8.07;5.10;;;4.60;99.90;;;;;;5071020;28;20945;-73
2023/01/24 02:02:02;;;;;;;6.00;4.93;;;4.60;99.90;;;;;;5071505;28;20412;-74
2023/01/24 02:04:32;;;;;;;7.60;5.23;;;4.60;99.90;;;;;;5062799;28;20515;-74
2023/01/24 02:07:09;;;;;;;7.37;5.03;;;4.60;99.90;;;;;;5051398;28;20398;-73
2023/01/24 02:09:41;;;;;;;7.70;5.77;;;4.50;99.90;;;;;;5051287;28;20425;-73
2023/01/24 02:12:13;;;;;;;7.80;4.90;;;4.50;99.90;;;;;;5051037;28;20463;-74
2023/01/24 02:17:24;;;;;;;5.17;4.37;;;4.40;99.90;;;;;;5051117;28;20416;-74
2023/01/24 02:20:14;;;;;;;7.40;4.37;;;4.40;99.90;;;;;;5052846;28;20409;-74
2023/01/24 02:22:56;;;;;;;6.63;5.37;;;4.40;99.90;;;;;;5053540;28;20455;-74
2023/01/24 02:25:49;;;;;;;4.77;3.87;;;4.50;99.90;;;;;;5067706;28;20419;-74
2023/01/24 02:28:15;;;;;;;6.57;3.67;;;4.50;99.90;;;;;;5074385;28;20428;-73
2023/01/24 02:30:41;;;;;;;4.97;4.37;;;4.40;99.90;;;;;;5073100;28;21040;-74
2023/01/24 02:33:12;;;;;;;8.23;5.70;;;4.50;99.90;;;;;;5074661;28;20166;-74
2023/01/24 02:35:37;;;;;;;7.10;5.13;;;4.50;99.90;;;;;;5057451;28;20529;-74
2023/01/24 02:38:06;;;;;;;9.30;5.50;;;4.50;99.90;;;;;;5054386;28;20441;-73
2023/01/24 02:40:32;;;;;;;9.13;5.70;;;4.50;99.90;;;;;;5054628;28;20166;-74
2023/01/24 02:43:01;;;;;;;9.47;5.80;;;4.50;99.90;;;;;;5054593;28;20426;-74
2023/01/24 02:45:29;;;;;;;7.03;5.13;;;4.50;99.90;;;;;;5053058;28;20800;-74
2023/01/24 02:47:56;;;;;;;5.03;4.53;;;4.60;99.90;;;;;;5054348;28;20502;-72
2023/01/24 02:53:29;;;;;;;8.07;4.80;;;4.60;99.90;;;;;;5057396;28;20417;-74
2023/01/24 02:53:29;;;;;;;6.07;5.10;;;4.60;99.90;;;;;;5066610;28;20496;-74
2023/01/24 02:58:43;;;;;;;7.23;5.37;;;4.60;99.90;;;;;;5074555;28;20423;-74
2023/01/24 03:01:09;;;;;;;6.90;5.27;;;4.60;99.90;;;;;;5074042;28;21082;-74
2023/01/24 03:03:34;;;;;;;5.90;4.83;;;4.60;99.90;;;;;;5059526;28;20213;-74
2023/01/24 03:06:00;;;;;;;7.97;5.10;;;4.60;99.90;;;;;;5053733;28;20167;-73
2023/01/24 03:08:29;;;;;;;5.37;4.47;;;4.70;99.90;;;;;;5054048;28;20244;-73
2023/01/24 03:10:55;;;;;;;5.40;4.43;;;4.70;99.90;;;;;;5054812;28;20568;-73
2023/01/24 03:35:16;;;;;;;5.77;4.77;;;4.60;99.90;;;;;;5073243;28;20450;-73
2023/01/24 03:40:27;;;;;;;6.93;5.13;;;4.50;99.90;;;;;;5070560;28;20885;-73
2023/01/24 03:42:53;;;;;;;7.87;4.40;;;4.40;99.90;;;;;;5053024;28;20441;-73
2023/01/24 03:45:21;;;;;;;6.03;4.90;;;4.40;99.90;;;;;;5052992;28;20441;-73
2023/01/24 03:47:55;;;;;;;14.57;8.10;;;4.40;99.90;;;;;;5054625;28;20186;-73
2023/01/24 03:53:14;;;;;;;7.53;5.13;;;4.40;99.90;;;;;;5053533;28;20798;-73
2023/01/24 03:55:40;;;;;;;6.33;5.23;;;4.30;99.90;;;;;;5052808;28;20401;-72
2023/01/24 03:58:07;;;;;;;5.80;4.70;;;4.20;99.90;;;;;;5056745;28;20442;-73
2023/01/24 04:00:33;;;;;;;4.60;3.93;;;4.10;99.90;;;;;;5072981;28;20170;-73
2023/01/24 04:02:59;;;;;;;8.00;5.07;;;4.10;99.90;;;;;;5072991;28;20405;-73
2023/01/24 04:05:25;;;;;;;7.73;4.77;;;4.00;99.90;;;;;;5072669;28;20480;-73
2023/01/24 04:07:52;;;;;;;44.67;20.60;;;4.00;99.90;;;;;;5070747;28;20186;-73
2023/01/24 04:10:17;;;;;;;6.10;4.43;;;4.10;99.90;;;;;;5079626;28;20189;-73
2023/01/24 04:12:43;;;;;;;6.73;4.47;;;4.00;99.90;;;;;;5072597;28;20393;-73
2023/01/24 04:15:31;;;;;;;5.77;4.40;;;4.00;99.90;;;;;;5072509;28;20253;-73
2023/01/24 04:17:59;;;;;;;6.37;4.10;;;4.00;99.90;;;;;;5072346;28;20193;-73
2023/01/24 04:20:26;;;;;;;5.00;4.33;;;4.00;99.90;;;;;;5072652;28;20401;-73
2023/01/24 04:22:51;;;;;;;8.30;5.17;;;4.00;99.90;;;;;;5072745;28;20898;-73
2023/01/24 04:25:17;;;;;;;7.30;5.10;;;4.00;99.90;;;;;;5072242;28;20477;-73
2023/01/24 04:27:44;;;;;;;9.30;4.73;;;4.00;99.90;;;;;;5071794;28;20247;-73
2023/01/24 04:30:11;;;;;;;8.63;4.63;;;4.00;99.90;;;;;;5052448;28;20489;-73
2023/01/24 04:32:37;;;;;;;7.53;4.87;;;3.90;99.90;;;;;;5052402;28;20448;-72
2023/01/24 04:35:03;;;;;;;5.33;4.80;;;3.90;99.90;;;;;;5052103;28;20405;-73
2023/01/24 04:37:29;;;;;;;8.13;4.83;;;3.90;99.90;;;;;;5052260;28;20170;-73
2023/01/24 04:39:55;;;;;;;5.97;4.13;;;4.00;99.90;;;;;;5065298;28;20921;-72
2023/01/24 04:42:21;;;;;;;5.47;4.27;;;3.90;99.90;;;;;;5071566;28;20401;-73
2023/01/24 04:44:46;;;;;;;8.40;4.90;;;3.90;99.90;;;;;;5071961;28;20206;-73
2023/01/24 04:47:12;;;;;;;5.90;4.43;;;3.90;99.90;;;;;;5072123;28;20251;-73
2023/01/24 04:49:37;;;;;;;8.87;4.77;;;3.90;99.90;;;;;;5071820;28;20204;-73
2023/01/24 04:52:03;;;;;;;10.00;5.17;;;3.90;99.90;;;;;;5072025;28;20240;-73
2023/01/24 04:54:29;;;;;;;6.50;4.17;;;3.90;99.90;;;;;;5071760;28;20174;-73
2023/01/24 04:56:55;;;;;;;8.30;4.60;;;3.80;99.90;;;;;;5072087;28;20488;-73
2023/01/24 04:59:20;;;;;;;5.30;4.50;;;3.80;99.90;;;;;;5058561;28;20194;-73
2023/01/24 05:01:46;;;;;;;8.67;5.57;;;3.90;99.90;;;;;;5052002;28;20662;-73
2023/01/24 05:04:11;;;;;;;7.70;3.90;;;3.90;99.90;;;;;;5051862;28;20534;-72
2023/01/24 05:06:37;;;;;;;7.50;5.30;;;3.90;99.90;;;;;;5050642;28;20171;-73
2023/01/24 05:09:03;;;;;;;7.90;4.67;;;3.90;99.90;;;;;;5052149;28;20206;-73
2023/01/24 05:11:29;;;;;;;7.00;4.50;;;3.90;99.90;;;;;;5051886;28;20190;-73
2023/01/24 05:13:54;;;;;;;8.20;4.80;;;3.90;99.90;;;;;;5050595;28;20450;-73
2023/01/24 05:16:20;;;;;;;6.67;5.10;;;3.90;99.90;;;;;;5051551;28;20250;-73
2023/01/24 05:18:45;;;;;;;6.47;4.57;;;4.00;99.90;;;;;;5054877;28;20221;-73
2023/01/24 05:21:13;;;;;;;7.67;4.57;;;4.00;99.90;;;;;;5050492;28;20171;-72
2023/01/24 05:23:39;;;;;;;7.57;4.90;;;4.00;99.90;;;;;;5052039;28;20708;-73
2023/01/24 05:26:05;;;;;;;6.87;5.10;;;4.00;99.90;;;;;;5051550;28;20401;-73
2023/01/24 05:28:31;;;;;;;5.77;4.30;;;4.00;99.90;;;;;;5062148;28;20447;-73
2023/01/24 05:31:06;;;;;;;72.97;32.03;;;4.00;99.90;;;;;;5071670;28;20194;-73
2023/01/24 05:33:31;;;;;;;18.83;10.93;;;4.00;99.90;;;;;;5071801;28;20406;-73
2023/01/24 05:35:58;;;;;;;7.80;5.70;;;4.00;99.90;;;;;;5071516;28;20400;-72
2023/01/24 05:38:24;;;;;;;8.20;4.67;;;4.00;99.90;;;;;;5066282;28;20214;-73
2023/01/24 05:40:50;;;;;;;8.10;4.20;;;4.00;99.90;;;;;;5051772;28;20433;-73
2023/01/24 05:43:16;;;;;;;6.87;4.23;;;4.00;99.90;;;;;;5051459;28;20488;-73
2023/01/24 05:45:41;;;;;;;6.87;4.77;;;4.00;99.90;;;;;;5051289;28;20186;-73
2023/01/24 05:48:07;;;;;;;6.67;5.67;;;4.00;99.90;;;;;;5051596;28;20228;-73
2023/01/24 05:50:32;;;;;;;7.03;4.10;;;4.00;99.90;;;;;;5051508;28;20186;-72
2023/01/24 05:53:01;;;;;;;7.60;4.73;;;4.00;99.90;;;;;;5051897;28;20159;-73
2023/01/24 05:55:27;;;;;;;6.33;4.93;;;4.00;99.90;;;;;;5055186;28;20171;-73
2023/01/24 05:57:52;;;;;;;8.23;4.93;;;4.00;99.90;;;;;;5058595;28;20474;-72
2023/01/24 06:00:18;;;;;;;8.07;4.80;;;4.00;99.90;;;;;;5072681;28;20700;-73
2023/01/24 06:02:44;;;;;;;8.13;4.90;;;4.00;99.90;;;;;;5054117;28;20178;-73
2023/01/24 06:05:09;;;;;;;8.10;4.80;;;4.10;99.90;;;;;;5054957;28;20883;-73
2023/01/24 06:07:35;;;;;;;6.70;5.07;;;4.10;99.90;;;;;;5054194;28;20300;-73
2023/01/24 06:10:00;;;;;;;7.90;5.33;;;4.10;99.90;;;;;;5055321;28;20254;-73
2023/01/24 06:12:26;;;;;;;5.10;4.17;;;4.10;99.90;;;;;;5055055;28;20198;-73
2023/01/24 06:14:51;;;;;;;6.83;5.20;;;4.10;99.90;;;;;;5054884;28;20169;-73
2023/01/24 06:17:17;;;;;;;7.77;5.33;;;4.00;99.90;;;;;;5058727;28;20162;-73
2023/01/24 06:19:43;;;;;;;8.67;5.70;;;4.00;99.90;;;;;;5062918;28;20182;-73
2023/01/24 06:22:40;;;;;;;6.70;4.57;;;4.00;99.90;;;;;;5054901;28;20179;-72
2023/01/24 06:25:16;;;;;;;6.77;4.67;;;4.00;99.90;;;;;;5048972;28;20178;-73
2023/01/24 06:27:42;;;;;;;8.53;5.07;;;4.00;99.90;;;;;;5057086;28;20455;-73
2023/01/24 06:30:11;;;;;;;7.13;5.53;;;4.00;99.90;;;;;;5074865;28;20409;-73
2023/01/24 06:33:02;;;;;;;9.13;5.60;;;4.00;99.90;;;;;;5074563;28;20289;-73
2023/01/24 06:35:42;;;;;;;6.70;5.13;;;4.00;99.90;;;;;;5074615;28;20781;-73
2023/01/24 06:38:26;;;;;;;7.00;5.70;;;4.00;99.90;;;;;;5055837;28;20502;-73
2023/01/24 06:40:59;;;;;;;9.83;5.70;;;4.00;99.90;;;;;;5054574;28;20809;-73
2023/01/24 06:43:25;;;;;;;6.60;5.60;;;4.00;99.90;;;;;;5054741;28;20559;-73
2023/01/24 06:45:50;;;;;;;8.97;5.70;;;4.00;99.90;;;;;;5054158;28;20485;-72
2023/01/24 06:48:16;;;;;;;7.50;5.20;;;3.90;99.90;;;;;;5061006;28;20194;-73
2023/01/24 06:50:41;;;;;;;5.57;4.93;;;4.00;99.90;;;;;;5074268;28;20647;-73
2023/01/24 06:53:10;;;;;;;7.03;5.33;;;4.00;99.90;;;;;;5074310;28;20245;-72
2023/01/24 06:55:36;;;;;;;8.73;5.37;;;3.90;99.90;;;;;;5073923;28;20849;-72
2023/01/24 06:58:03;;;;;;;7.30;5.40;;;4.00;99.90;;;;;;5068438;28;20441;-73
2023/01/24 07:00:29;;;;;;;6.40;4.50;;;4.00;99.90;;;;;;5054408;28;20683;-73
2023/01/24 07:03:05;;;;;;;6.20;5.03;;;4.00;99.90;;;;;;5054254;28;20425;-73
2023/01/24 07:05:31;;;;;;;7.27;5.30;;;4.00;99.90;;;;;;5054321;28;20428;-73
2023/01/24 07:07:57;;;;;;;6.73;5.27;;;3.90;99.90;;;;;;5073403;28;20471;-73
2023/01/24 07:10:22;;;;;;;7.57;5.30;;;3.90;99.90;;;;;;5089662;28;20531;-73
2023/01/24 07:12:48;;;;;;;7.60;6.30;;;4.00;99.90;;;;;;5074031;28;20225;-73
2023/01/24 07:15:13;;;;;;;7.97;5.50;;;4.00;99.90;;;;;;5073768;28;20174;-73
2023/01/24 07:17:39;;;;;;;10.50;5.90;;;4.00;99.90;;;;;;5072346;28;20252;-74
2023/01/24 07:20:06;;;;;;;7.47;4.80;;;3.90;99.90;;;;;;5053959;28;20645;-72
2023/01/24 07:22:32;;;;;;;9.07;5.77;;;3.90;99.90;;;;;;5053871;28;20433;-71
2023/01/24 07:24:58;;;;;;;7.47;5.90;;;4.00;99.90;;;;;;5053333;28;20406;-73
2023/01/24 07:27:24;;;;;;;10.93;5.40;;;4.00;99.90;;;;;;5053740;28;20433;-73
2023/01/24 07:29:49;;;;;;;11.53;5.80;;;4.00;99.90;;;;;;5071667;28;20451;-73
2023/01/24 07:32:15;;;;;;;8.03;5.20;;;4.00;99.90;;;;;;5073643;28;20251;-73
2023/01/24 07:34:40;;;;;;;7.97;5.03;;;4.00;99.90;;;;;;5073250;28;20178;-74
2023/01/24 07:37:07;;;;;;;7.17;5.33;;;4.00;99.90;;;;;;5063353;28;20186;-74
2023/01/24 07:39:33;;;;;;;8.30;5.20;;;4.00;99.90;;;;;;5069532;28;20194;-71
2023/01/24 07:41:58;;;;;;;8.13;5.70;;;4.10;99.90;;;;;;5070194;28;20412;-71
2023/01/24 07:44:24;;;;;;;9.30;5.60;;;4.00;99.90;;;;;;5072923;28;20163;-73
2023/01/24 07:46:49;;;;;;;7.33;4.53;;;4.00;99.90;;;;;;5073253;28;20159;-73
2023/01/24 07:49:15;;;;;;;7.70;4.57;;;4.00;99.90;;;;;;5072859;28;20198;-73
2023/01/24 07:51:40;;;;;;;7.20;5.73;;;4.00;99.90;;;;;;5073002;28;20204;-73
2023/01/24 07:54:06;;;;;;;11.03;5.03;;;4.10;99.90;;;;;;5073155;28;20158;-72
2023/01/24 07:56:32;;;;;;;6.30;5.70;;;4.00;99.90;;;;;;5072816;28;20173;-73
2023/01/24 07:58:58;;;;;;;5.73;4.90;;;4.00;99.90;;;;;;5061912;28;20229;-73
2023/01/24 08:01:24;;;;;;;6.20;4.60;;;4.00;99.90;;;;;;5053212;28;20170;-73
2023/01/24 08:03:53;;;;;;;6.53;4.90;;;4.10;99.90;;;;;;5052958;28;20424;-73
2023/01/24 08:06:18;;;;;;;7.07;5.50;;;4.10;99.90;;;;;;5052837;28;20475;-73
2023/01/24 08:08:44;;;;;;;8.33;4.97;;;4.10;99.90;;;;;;5053251;28;20934;-72
2023/01/24 08:11:15;;;;;;;9.27;5.37;;;4.10;99.90;;;;;;5066552;28;20198;-73
2023/01/24 08:13:41;;;;;;;9.77;6.10;;;4.20;99.90;;;;;;5072871;28;20155;-72
2023/01/24 08:16:07;;;;;;;10.20;6.47;;;4.20;99.90;;;;;;5070922;28;20424;-73
2023/01/24 08:18:33;;;;;;;8.40;5.67;;;4.20;99.90;;;;;;5071889;28;20549;-73
2023/01/24 08:20:58;;;;;;;10.83;6.00;;;4.30;99.90;;;;;;5061225;28;20479;-73
2023/01/24 08:23:24;;;;;;;7.60;5.23;;;4.30;99.90;;;;;;5052479;28;20171;-73
2023/01/24 08:25:50;;;;;;;7.37;5.67;;;4.20;99.90;;;;;;5052344;28;20167;-73
2023/01/24 08:28:16;;;;;;;9.13;6.00;;;4.20;99.90;;;;;;5052623;28;20799;-73
2023/01/24 08:30:42;;;;;;;7.53;4.77;;;4.20;99.90;;;;;;5060798;28;20701;-73
2023/01/24 08:33:10;;;;;;;6.70;5.10;;;4.30;99.90;;;;;;5072487;28;20483;-73
2023/01/24 08:35:36;;;;;;;6.70;5.20;;;4.40;99.90;;;;;;5065766;28;20175;-73
2023/01/24 08:38:01;;;;;;;6.80;4.93;;;4.40;99.90;;;;;;5057883;28;20452;-72
2023/01/24 08:40:27;;;;;;;10.90;6.30;;;4.40;99.90;;;;;;5071955;28;20179;-73
2023/01/24 08:42:52;;;;;;;6.90;5.03;;;4.50;99.90;;;;;;5072344;28;20193;-73
2023/01/24 08:45:18;;;;;;;6.10;5.00;;;4.40;99.90;;;;;;5072120;28;20166;-73
2023/01/24 08:47:44;;;;;;;7.00;5.20;;;4.50;99.90;;;;;;5071860;28;20182;-73
2023/01/24 08:50:10;;;;;;;9.90;5.13;;;4.50;99.90;;;;;;5068480;28;20167;-72
2023/01/24 08:52:35;;;;;;;6.43;5.27;;;4.50;99.90;;;;;;5052180;28;20772;-73
2023/01/24 08:55:01;;;;;;;7.37;5.67;;;4.50;99.90;;;;;;5051720;28;20535;-73
2023/01/24 08:57:26;;;;;;;7.37;5.17;;;4.60;99.90;;;;;;5052116;28;20257;-72
2023/01/24 08:59:53;;;;;;;5.90;5.30;;;4.60;99.90;;;;;;5052712;28;20171;-73
2023/01/24 09:02:18;;;;;;;7.87;6.20;;;4.70;99.90;;;;;;5072078;28;20654;-73
2023/01/24 09:04:44;;;;;;;8.10;5.97;;;4.70;99.90;;;;;;5071303;28;20428;-73
2023/01/24 09:07:13;;;;;;;6.27;5.10;;;4.80;99.90;;;;;;5052105;28;20213;-73
2023/01/24 09:09:39;;;;;;;6.57;5.40;;;4.90;99.90;;;;;;5051663;28;20187;-73
2023/01/24 09:12:05;;;;;;;7.73;5.33;;;4.90;99.90;;;;;;5052091;28;20476;-73
2023/01/24 09:14:30;;;;;;;5.80;5.17;;;5.00;99.90;;;;;;5051682;28;20250;-73
2023/01/24 09:16:56;;;;;;;8.67;5.13;;;5.00;99.90;;;;;;5051824;28;20485;-74
2023/01/24 09:19:23;;;;;;;7.90;4.23;;;5.00;99.90;;;;;;5051696;28;20190;-74
2023/01/24 09:21:51;;;;;;;7.80;4.90;;;5.10;99.90;;;;;;5051851;28;20189;-73
2023/01/24 09:24:18;;;;;;;14.43;8.47;;;5.10;99.90;;;;;;5059647;28;20427;-73
2023/01/24 09:26:44;;;;;;;21.90;12.30;;;5.10;99.90;;;;;;5072066;28;20440;-73
2023/01/24 09:29:10;;;;;;;9.90;7.13;;;5.10;99.90;;;;;;5071510;28;20444;-73
2023/01/24 09:31:36;;;;;;;7.40;5.07;;;5.20;99.90;;;;;;5055856;28;20479;-71
2023/01/24 09:34:01;;;;;;;6.10;4.97;;;5.20;99.90;;;;;;5055468;28;20182;-72
2023/01/24 09:36:29;;;;;;;8.73;5.33;;;5.20;99.90;;;;;;5070292;28;20174;-72
2023/01/24 09:38:56;;;;;;;9.00;5.40;;;5.20;99.90;;;;;;5075303;28;20662;-72
2023/01/24 09:41:55;;;;;;;6.87;5.07;;;5.20;99.90;;;;;;5055724;28;20432;-71
2023/01/24 09:44:25;;;;;;;5.53;4.53;;;5.30;99.90;;;;;;5055441;28;20818;-73
2023/01/24 09:46:53;;;;;;;6.67;4.87;;;5.40;99.90;;;;;;5055707;28;20459;-73
2023/01/24 09:49:40;;;;;;;6.40;4.57;;;5.40;99.90;;;;;;5057395;28;20451;-73
2023/01/24 09:52:12;;;;;;;9.03;5.40;;;5.50;99.90;;;;;;5075527;28;20444;-73
2023/01/24 09:54:48;;;;;;;6.07;4.20;;;5.50;99.90;;;;;;5075226;28;20459;-73
2023/01/24 09:57:24;;;;;;;6.23;4.60;;;5.60;99.90;;;;;;5075638;28;20407;-73
2023/01/24 09:59:55;;;;;;;7.10;5.53;;;5.70;99.90;;;;;;5068946;28;20419;-73
2023/01/24 10:02:21;;;;;;;5.70;4.70;;;5.70;99.90;;;;;;5055354;28;20420;-73
2023/01/24 10:04:49;;;;;;;6.47;4.77;;;5.70;99.90;;;;;;5055214;28;20503;-73
2023/01/24 10:07:46;;;;;;;8.07;4.10;;;5.80;99.90;;;;;;5055239;28;20404;-71
2023/01/24 10:10:30;;;;;;;5.90;3.83;;;5.70;99.90;;;;;;5054381;28;20785;-72
2023/01/24 10:13:21;;;;;;;4.87;3.77;;;5.80;99.90;;;;;;5055134;28;20397;-75
2023/01/24 10:15:53;;;;;;;6.13;4.40;;;5.90;99.90;;;;;;5054940;28;20551;-74
2023/01/24 10:18:34;;;;;;;6.43;4.63;;;5.80;99.90;;;;;;5053806;28;21212;-73
2023/01/24 10:21:23;;;;;;;6.53;4.87;;;5.90;99.90;;;;;;5069000;28;20913;-73
2023/01/24 10:23:56;;;;;;;6.43;4.93;;;5.90;99.90;;;;;;5074056;28;20436;-73
2023/01/24 10:26:38;;;;;;;7.30;5.17;;;5.90;99.90;;;;;;5074670;28;20902;-73
2023/01/24 10:29:24;;;;;;;6.37;4.60;;;5.90;99.90;;;;;;5074760;28;20426;-71
2023/01/24 10:32:04;;;;;;;6.30;4.20;;;6.00;99.90;;;;;;5052517;28;20464;-73
2023/01/24 10:34:46;;;;;;;6.73;4.40;;;6.00;99.90;;;;;;5054785;28;20933;-73
2023/01/24 10:37:41;;;;;;;6.53;4.80;;;6.00;99.90;;;;;;5054710;28;20417;-73
2023/01/24 10:40:16;;;;;;;5.93;4.63;;;6.00;99.90;;;;;;5051226;28;20417;-74
2023/01/24 10:42:42;;;;;;;10.60;5.10;;;5.80;99.90;;;;;;5054620;28;20425;-74
2023/01/24 10:45:46;;;;;;;5.37;4.33;;;5.90;99.90;;;;;;5053927;28;20495;-72
2023/01/24 10:48:46;;;;;;;6.93;4.27;;;6.00;99.90;;;;;;5049552;28;20208;-73
2023/01/24 10:51:17;;;;;;;4.50;3.67;;;6.10;99.90;;;;;;5051229;28;20463;-72
2023/01/24 10:53:43;;;;;;;5.60;4.37;;;6.10;99.90;;;;;;5074274;28;20918;-73
2023/01/24 10:56:09;;;;;;;5.30;4.70;;;6.10;99.90;;;;;;5073920;28;20412;-73
2023/01/24 10:58:40;;;;;;;4.20;3.80;;;6.10;99.90;;;;;;5066728;28;20210;-73
2023/01/24 11:01:07;;;;;;;6.57;4.77;;;6.10;99.90;;;;;;5054081;28;20408;-73
2023/01/24 11:03:37;;;;;;;7.10;5.13;;;6.10;99.90;;;;;;5053854;28;20417;-73
2023/01/24 11:06:03;;;;;;;6.20;5.27;;;6.20;99.90;;;;;;5053704;28;20782;-71
2023/01/24 11:08:37;;;;;;;7.33;6.20;;;6.30;99.90;;;;;;5059869;28;20436;-72
2023/01/24 11:11:16;;;;;;;5.30;4.33;;;6.20;99.90;;;;;;5073796;28;20448;-72
2023/01/24 11:13:43;;;;;;;6.10;4.70;;;6.00;99.90;;;;;;5073707;28;20501;-73
2023/01/24 11:16:15;;;;;;;5.60;4.80;;;6.00;99.90;;;;;;5073511;28;20809;-74
2023/01/24 11:18:47;;;;;;;5.57;4.37;;;6.10;99.90;;;;;;5064894;28;20429;-73
2023/01/24 11:21:18;;;;;;;6.13;5.00;;;6.20;99.90;;;;;;5053486;28;20404;-74
2023/01/24 11:23:44;;;;;;;7.50;4.70;;;6.20;99.90;;;;;;5053692;28;20414;-73
2023/01/24 11:26:27;;;;;;;5.60;4.10;;;6.10;99.90;;;;;;5051811;28;20414;-73
2023/01/24 11:29:05;;;;;;;6.57;4.93;;;6.10;99.90;;;;;;5061917;28;20201;-73
2023/01/24 11:31:42;;;;;;;4.97;4.47;;;6.10;99.90;;;;;;5073314;28;20472;-73
2023/01/24 11:34:10;;;;;;;5.20;4.60;;;6.10;99.90;;;;;;5070285;28;20409;-73
2023/01/24 11:36:54;;;;;;;5.60;4.97;;;6.20;99.90;;;;;;5068833;28;21091;-73
2023/01/24 11:39:48;;;;;;;6.97;5.07;;;6.20;99.90;;;;;;5059524;28;20514;-73
2023/01/24 11:42:36;;;;;;;8.00;5.10;;;6.20;99.90;;;;;;5053546;28;20420;-73
2023/01/24 11:45:21;;;;;;;7.40;4.50;;;6.30;99.90;;;;;;5053057;28;20405;-75
2023/01/24 11:48:20;;;;;;;6.47;3.93;;;6.30;99.90;;;;;;5053310;28;20480;-72
2023/01/24 11:51:07;;;;;;;5.13;4.30;;;6.40;99.90;;;;;;5067961;28;20406;-72
2023/01/24 11:53:35;;;;;;;8.60;4.80;;;6.40;99.90;;;;;;5057421;28;20416;-71
2023/01/24 11:56:24;;;;;;;7.83;4.80;;;6.30;99.90;;;;;;5072642;28;20475;-72
2023/01/24 11:59:16;;;;;;;4.40;3.77;;;6.40;99.90;;;;;;5072647;28;20843;-73
2023/01/24 12:02:20;;;;;;;4.37;3.97;;;6.30;99.90;;;;;;5068181;28;20418;-73
2023/01/24 12:05:04;;;;;;;4.77;4.27;;;6.40;99.90;;;;;;5064728;28;20514;-73
2023/01/24 12:07:29;;;;;;;5.90;4.57;;;6.40;99.90;;;;;;5072820;28;20946;-73
2023/01/24 12:10:24;;;;;;;7.00;4.60;;;6.50;99.90;;;;;;5072606;28;20401;-73
2023/01/24 12:13:14;;;;;;;6.50;4.40;;;6.40;99.90;;;;;;5072229;28;20258;-73
2023/01/24 12:16:09;;;;;;;5.07;4.57;;;6.50;99.90;;;;;;5071643;28;20412;-73
2023/01/24 12:18:46;;;;;;;6.17;4.90;;;6.40;99.90;;;;;;5059477;28;20456;-71
2023/01/24 12:21:13;;;;;;;5.23;4.73;;;6.40;99.90;;;;;;5052502;28;20436;-71
2023/01/24 12:24:01;;;;;;;4.53;4.13;;;6.50;99.90;;;;;;5052659;28;20409;-72
2023/01/24 12:26:34;;;;;;;4.40;3.93;;;6.50;99.90;;;;;;5052273;28;20397;-71
2023/01/24 12:29:17;;;;;;;7.87;4.50;;;6.50;99.90;;;;;;5062311;28;20463;-74
2023/01/24 12:32:07;;;;;;;6.00;4.67;;;6.60;99.90;;;;;;5070990;28;20448;-74
2023/01/24 12:35:03;;;;;;;5.40;4.53;;;6.60;99.90;;;;;;5062346;28;20412;-73
2023/01/24 12:37:38;;;;;;;4.83;3.73;;;6.60;99.90;;;;;;5070737;28;20440;-74
2023/01/24 12:40:13;;;;;;;8.10;4.97;;;6.50;99.90;;;;;;5070597;28;20424;-71
2023/01/24 12:42:55;;;;;;;5.87;4.17;;;6.50;99.90;;;;;;5072109;28;20409;-72
2023/01/24 12:45:29;;;;;;;5.70;4.93;;;6.60;99.90;;;;;;5071748;28;20392;-71
2023/01/24 12:48:24;;;;;;;5.83;4.70;;;6.60;99.90;;;;;;5070112;28;20438;-73
2023/01/24 12:50:59;;;;;;;5.87;4.33;;;6.60;99.90;;;;;;5050596;28;20401;-71
2023/01/24 12:53:57;;;;;;;6.90;5.90;;;6.60;99.90;;;;;;5067545;28;20442;-72
2023/01/24 12:56:37;;;;;;;7.10;4.83;;;6.60;99.90;;;;;;5071139;28;20409;-72
2023/01/24 12:59:03;;;;;;;9.20;5.57;;;6.60;99.90;;;;;;5060745;28;20433;-73
2023/01/24 13:01:56;;;;;;;8.23;5.13;;;6.60;99.90;;;;;;5051509;28;20406;-73
2023/01/24 13:04:57;;;;;;;6.53;5.03;;;6.60;99.90;;;;;;5064333;28;20913;-73
2023/01/24 13:07:45;;;;;;;5.90;4.33;;;6.60;99.90;;;;;;5065997;28;20417;-73
2023/01/24 13:10:36;;;;;;;6.03;4.83;;;6.70;99.90;;;;;;5051863;28;20440;-73
2023/01/24 13:13:03;;;;;;;5.73;4.33;;;6.60;99.90;;;;;;5051658;28;20424;-73
2023/01/24 13:15:54;;;;;;;7.23;5.40;;;6.70;99.90;;;;;;5051258;28;20402;-73
2023/01/24 13:18:41;;;;;;;5.43;4.90;;;6.50;99.90;;;;;;5055923;28;20473;-72
2023/01/24 13:21:15;;;;;;;6.67;4.33;;;6.60;99.90;;;;;;5051681;28;20401;-73
2023/01/24 13:24:21;;;;;;;9.17;5.67;;;6.70;99.90;;;;;;5051601;28;20535;-72
2023/01/24 13:27:18;;;;;;;6.43;5.17;;;6.80;99.90;;;;;;5051771;28;20412;-73
2023/01/24 13:29:53;;;;;;;6.20;5.03;;;6.70;99.90;;;;;;5069944;28;20523;-73
2023/01/24 13:32:21;;;;;;;6.30;5.70;;;6.50;99.90;;;;;;5071475;28;20451;-73
2023/01/24 13:34:55;;;;;;;5.20;4.70;;;6.50;99.90;;;;;;5063923;28;20411;-73
2023/01/24 13:37:25;;;;;;;7.70;5.30;;;6.40;99.90;;;;;;5070140;28;20407;-72
2023/01/24 13:40:30;;;;;;;6.47;5.33;;;6.50;99.90;;;;;;5071262;28;20773;-73
2023/01/24 13:42:56;;;;;;;7.33;4.73;;;6.50;99.90;;;;;;5029455;28;20986;-73
2023/01/24 13:45:36;;;;;;;10.80;6.27;;;6.50;99.90;;;;;;5063661;28;20504;-73
2023/01/24 13:48:22;;;;;;;5.60;4.97;;;6.50;99.90;;;;;;5071214;28;20420;-73
2023/01/24 13:51:16;;;;;;;8.60;5.37;;;6.60;99.90;;;;;;5071327;28;20412;-73
2023/01/24 13:54:03;;;;;;;6.23;5.63;;;6.60;99.90;;;;;;5051156;28;20500;-73